Time;durP1;ratioP1;P1;durP2;ratioP2;P2;SDS_P1;SDS_P2;PMS_P1;PMS_P2;Temp;Humidity;BMP_temperature;BMP_pressure;BME280_temperature;BME280_humidity;BME280_pressure;Samples;Min_cycle;Max_cycle;Signal;HPM_P1;HPM_P2
2020/12/21 00:02:24;;;;;;;7.63;4.10;;;9.80;99.90;;;;;;6207076;23;20431;-81
2020/12/21 00:08:34;;;;;;;5.03;3.03;;;9.70;99.90;;;;;;6237953;23;20450;-81
2020/12/21 00:13:53;;;;;;;6.57;2.50;;;9.90;99.90;;;;;;6306049;22;20438;-82
2020/12/21 00:20:28;;;;;;;6.33;2.40;;;10.40;99.90;;;;;;6110686;23;20410;-81
2020/12/21 00:30:17;;;;;;;6.60;2.70;;;9.90;99.90;;;;;;6035247;23;20424;-81
2020/12/21 00:33:00;;;;;;;6.53;2.57;;;9.70;99.90;;;;;;6070497;23;20424;-81
2020/12/21 00:43:53;;;;;;;5.13;2.20;;;10.00;99.90;;;;;;6062085;23;20423;-83
2020/12/21 00:46:35;;;;;;;5.20;2.33;;;9.60;99.90;;;;;;6097554;23;20427;-81
2020/12/21 00:49:08;;;;;;;2.73;1.83;;;9.60;99.90;;;;;;6131594;23;20502;-80
2020/12/21 00:52:15;;;;;;;4.40;2.10;;;9.90;99.90;;;;;;6128888;23;20428;-82
2020/12/21 00:54:58;;;;;;;5.07;2.50;;;9.40;99.90;;;;;;6167713;23;20492;-83
2020/12/21 01:05:19;;;;;;;9.47;2.73;;;9.40;99.90;;;;;;6122481;23;20387;-83
2020/12/21 01:12:18;;;;;;;;;;;;;;;;;;;;;
2020/12/21 01:15:30;;;;;;;4.93;1.80;;;9.70;99.90;;;;;;6124575;23;20518;-82
2020/12/21 01:18:48;;;;;;;7.90;2.20;;;9.80;99.90;;;;;;6131835;23;20616;-83
2020/12/21 01:22:06;;;;;;;;;;;;;;;;;;;;;
2020/12/21 01:28:35;;;;;;;6.13;2.50;;;9.60;99.90;;;;;;6150447;23;20482;-81
2020/12/21 01:32:02;;;;;;;8.57;3.07;;;9.50;99.90;;;;;;6150992;22;20423;-80
2020/12/21 01:35:20;;;;;;;4.20;1.77;;;9.50;99.90;;;;;;6301114;22;20470;-81
2020/12/21 01:38:13;;;;;;;6.43;2.23;;;9.50;99.90;;;;;;6310696;22;20902;-80
2020/12/21 01:41:34;;;;;;;4.10;2.00;;;9.40;99.90;;;;;;6312682;22;20547;-81
2020/12/21 01:44:51;;;;;;;5.70;1.80;;;9.50;99.90;;;;;;6209659;22;20378;-81
2020/12/21 01:47:30;;;;;;;4.97;2.80;;;9.40;99.90;;;;;;6324965;22;20394;-81
2020/12/21 01:50:51;;;;;;;5.67;2.23;;;9.50;99.90;;;;;;6323776;22;20482;-81
2020/12/21 01:53:35;;;;;;;8.73;2.23;;;9.50;99.90;;;;;;6323538;22;20452;-80
2020/12/21 01:56:20;;;;;;;7.03;2.10;;;9.50;99.90;;;;;;6319150;22;20398;-81
2020/12/21 01:59:33;;;;;;;2.43;2.03;;;9.20;99.90;;;;;;6316138;22;20500;-80
2020/12/21 02:02:30;;;;;;;3.10;2.00;;;9.10;99.90;;;;;;6314778;22;20398;-82
2020/12/21 02:05:15;;;;;;;4.47;1.70;;;9.30;99.90;;;;;;6307383;22;20434;-81
2020/12/21 02:07:58;;;;;;;5.70;1.73;;;9.10;99.90;;;;;;6302541;22;20410;-79
2020/12/21 02:11:01;;;;;;;3.83;1.93;;;9.00;99.90;;;;;;6284985;22;20442;-81
2020/12/21 02:13:57;;;;;;;4.13;2.13;;;9.20;99.90;;;;;;6306940;22;20444;-81
2020/12/21 02:16:55;;;;;;;8.37;2.10;;;9.20;99.90;;;;;;6313346;22;20402;-80
2020/12/21 02:19:52;;;;;;;4.37;1.93;;;9.40;99.90;;;;;;6300149;22;20399;-80
2020/12/21 02:22:37;;;;;;;;;;;;;;;;;;;;;
2020/12/21 02:26:00;;;;;;;5.40;2.30;;;9.40;99.90;;;;;;6304810;22;20421;-81
2020/12/21 02:28:41;;;;;;;6.50;1.70;;;9.80;99.90;;;;;;6187531;23;20385;-82
2020/12/21 02:31:28;;;;;;;3.13;1.50;;;9.80;99.90;;;;;;6210542;23;20425;-82
2020/12/21 02:42:15;;;;;;;6.73;2.10;;;9.30;99.90;;;;;;6031692;23;21013;-82
2020/12/21 02:45:20;;;;;;;3.60;1.60;;;9.40;99.90;;;;;;5931454;23;21198;-81
2020/12/21 02:48:35;;;;;;;3.20;1.70;;;9.10;99.90;;;;;;6016549;23;20801;-81
2020/12/21 02:51:07;;;;;;;5.20;1.80;;;9.40;99.90;;;;;;6012720;23;20509;-81
2020/12/21 02:55:27;;;;;;;7.67;2.03;;;10.00;99.90;;;;;;6028780;23;20894;-80
2020/12/21 02:59:07;;;;;;;6.40;1.53;;;9.20;99.90;;;;;;6035566;23;20425;-81
2020/12/21 03:02:01;;;;;;;;;;;;;;;;;;;;;
2020/12/21 03:10:03;;;;;;;2.43;2.20;;;9.50;99.90;;;;;;6140127;23;20473;-81
2020/12/21 03:16:03;;;;;;;4.93;1.80;;;9.40;99.90;;;;;;6146759;23;20446;-82
2020/12/21 03:19:20;;;;;;;5.17;1.60;;;9.20;99.90;;;;;;6130118;23;20393;-81
2020/12/21 03:22:54;;;;;;;4.07;2.27;;;8.90;99.90;;;;;;6072707;23;20404;-81
2020/12/21 03:30:26;;;;;;;9.80;2.10;;;8.90;99.90;;;;;;5952293;24;20420;-81
2020/12/21 03:33:41;;;;;;;;;;;;;;;;;;;;;
2020/12/21 03:37:12;;;;;;;4.20;2.10;;;8.40;99.90;;;;;;6064198;23;20412;-82
2020/12/21 03:43:25;;;;;;;8.50;2.27;;;8.50;99.90;;;;;;6304643;22;20503;-81
2020/12/21 03:46:33;;;;;;;5.13;1.80;;;8.60;99.90;;;;;;6295988;22;20805;-81
2020/12/21 03:49:02;;;;;;;7.80;2.80;;;8.20;99.90;;;;;;6310200;22;20800;-80
2020/12/21 03:52:06;;;;;;;6.83;2.13;;;8.60;99.90;;;;;;6308372;22;20429;-82
2020/12/21 03:55:19;;;;;;;5.10;2.90;;;8.70;99.90;;;;;;6308511;22;20446;-80
2020/12/21 03:58:26;;;;;;;5.20;3.27;;;8.60;99.90;;;;;;6309980;22;20912;-81
2020/12/21 04:01:37;;;;;;;3.93;2.60;;;8.50;99.90;;;;;;6310049;22;20434;-80
2020/12/21 04:04:49;;;;;;;3.00;2.67;;;8.60;99.90;;;;;;6262253;22;20397;-80
2020/12/21 04:08:02;;;;;;;4.83;3.13;;;9.10;99.90;;;;;;6324215;22;20390;-81
2020/12/21 04:11:33;;;;;;;7.13;2.80;;;8.40;99.90;;;;;;6112284;23;20439;-81
2020/12/21 04:15:15;;;;;;;;;;;;;;;;;;;;;
2020/12/21 04:22:35;;;;;;;6.90;3.13;;;8.40;99.90;;;;;;6089005;23;20419;-81
2020/12/21 04:29:15;;;;;;;3.07;2.77;;;8.30;99.90;;;;;;6154862;23;20466;-79
2020/12/21 04:32:06;;;;;;;5.90;3.53;;;8.20;99.90;;;;;;6208375;23;20950;-82
2020/12/21 04:34:59;;;;;;;9.30;3.33;;;8.50;99.90;;;;;;6119074;23;20452;-81
2020/12/21 04:38:54;;;;;;;5.23;4.20;;;8.50;99.90;;;;;;6159167;23;20870;-81
2020/12/21 04:45:39;;;;;;;3.63;1.80;;;8.50;99.90;;;;;;6172562;23;20434;-81
2020/12/21 04:48:45;;;;;;;7.10;2.83;;;8.20;99.90;;;;;;6180115;23;20406;-81
2020/12/21 04:51:58;;;;;;;6.13;2.90;;;8.30;99.90;;;;;;6160265;23;20408;-82
2020/12/21 05:03:29;;;;;;;7.37;2.87;;;8.40;99.90;;;;;;6253249;23;20471;-80
2020/12/21 05:14:46;;;;;;;7.67;2.97;;;8.50;99.90;;;;;;5969381;23;21089;-80
2020/12/21 05:17:25;;;;;;;5.10;3.10;;;8.30;99.90;;;;;;5952404;23;20509;-82
2020/12/21 05:20:36;;;;;;;7.17;3.07;;;8.10;99.90;;;;;;5974900;23;20593;-81
2020/12/21 05:24:05;;;;;;;5.93;2.60;;;8.30;99.90;;;;;;5996834;23;20963;-81
2020/12/21 05:27:40;;;;;;;5.37;2.80;;;8.10;99.90;;;;;;6034258;23;20423;-80
2020/12/21 05:31:21;;;;;;;10.73;2.80;;;8.20;99.90;;;;;;6032541;23;20421;-80
2020/12/21 05:34:43;;;;;;;5.53;3.00;;;8.20;99.90;;;;;;5992219;23;20484;-79
2020/12/21 05:41:39;;;;;;;6.30;2.70;;;8.20;99.90;;;;;;6103112;23;20526;-81
2020/12/21 05:44:37;;;;;;;5.47;2.37;;;8.70;99.90;;;;;;6041496;23;20413;-82
2020/12/21 05:47:27;;;;;;;4.80;2.83;;;8.20;99.90;;;;;;6102064;23;20408;-81
2020/12/21 05:54:32;;;;;;;8.13;2.73;;;8.00;99.90;;;;;;5914859;24;20590;-82
2020/12/21 06:01:35;;;;;;;6.07;3.60;;;7.50;99.90;;;;;;6029554;23;20530;-81
2020/12/21 06:04:49;;;;;;;5.77;3.10;;;7.90;99.90;;;;;;6001875;23;20415;-81
2020/12/21 06:08:13;;;;;;;7.23;3.50;;;8.20;99.90;;;;;;5999435;23;20431;-80
2020/12/21 06:11:39;;;;;;;5.40;3.10;;;8.10;99.90;;;;;;6086084;23;20477;-81
2020/12/21 06:18:22;;;;;;;7.43;2.60;;;8.10;99.90;;;;;;6201545;23;20422;-79
2020/12/21 06:25:22;;;;;;;6.73;3.33;;;7.80;99.90;;;;;;6166610;23;20402;-80
2020/12/21 06:36:26;;;;;;;6.87;2.87;;;8.20;99.90;;;;;;6175688;22;20589;-80
2020/12/21 06:39:28;;;;;;;5.73;2.87;;;8.40;99.90;;;;;;6075287;23;20395;-80
2020/12/21 06:42:30;;;;;;;;;;;;;;;;;;;;;
2020/12/21 06:46:12;;;;;;;6.20;3.43;;;8.30;99.90;;;;;;6267145;22;20404;-80
2020/12/21 06:52:50;;;;;;;6.47;3.20;;;8.30;99.90;;;;;;6150396;23;20402;-80
2020/12/21 06:55:43;;;;;;;6.90;3.77;;;9.20;99.90;;;;;;6122443;23;20522;-82
2020/12/21 06:59:31;;;;;;;5.43;3.03;;;8.30;99.90;;;;;;6087941;23;20822;-80
2020/12/21 07:09:51;;;;;;;5.00;2.63;;;9.30;99.90;;;;;;6143986;23;21028;-81
2020/12/21 07:12:59;;;;;;;4.30;2.93;;;8.40;99.90;;;;;;6138634;23;20411;-80
2020/12/21 07:15:48;;;;;;;4.70;3.30;;;8.40;99.90;;;;;;6130795;23;20446;-81
2020/12/21 07:22:33;;;;;;;8.33;3.13;;;8.40;99.90;;;;;;6006444;23;20453;-81
2020/12/21 07:32:07;;;;;;;8.60;2.60;;;8.50;99.90;;;;;;6116257;23;20867;-81
2020/12/21 07:35:32;;;;;;;10.17;3.40;;;8.50;99.90;;;;;;6126593;23;20483;-81
2020/12/21 07:43:13;;;;;;;8.00;3.07;;;8.50;99.90;;;;;;6133119;23;20411;-81
2020/12/21 08:06:22;;;;;;;4.80;2.20;;;8.70;99.90;;;;;;6142539;23;20400;-81
2020/12/21 08:13:57;;;;;;;6.40;2.80;;;8.70;99.90;;;;;;6201920;23;20404;-81
2020/12/21 08:17:20;;;;;;;4.30;2.33;;;8.70;99.90;;;;;;6160056;23;20427;-81
2020/12/21 08:36:14;;;;;;;7.23;4.10;;;8.40;99.90;;;;;;6077729;23;20456;-80
2020/12/21 08:39:34;;;;;;;3.40;2.17;;;8.90;99.90;;;;;;6100284;23;20475;-83
2020/12/21 08:42:31;;;;;;;2.67;1.83;;;8.90;99.90;;;;;;6110004;23;20443;-82
2020/12/21 08:45:59;;;;;;;;;;;;;;;;;;;;;
2020/12/21 08:49:35;;;;;;;6.27;2.90;;;8.70;99.90;;;;;;6131031;23;20362;-81
2020/12/21 08:52:40;;;;;;;11.47;3.30;;;9.10;99.90;;;;;;6086510;23;20472;-80
2020/12/21 08:55:38;;;;;;;7.27;2.97;;;9.00;99.90;;;;;;6097501;23;20479;-80
2020/12/21 08:58:25;;;;;;;3.90;2.20;;;8.80;99.90;;;;;;6072591;23;20475;-80
2020/12/21 09:01:47;;;;;;;8.10;2.23;;;8.80;99.90;;;;;;6075600;23;20432;-80
2020/12/21 09:08:34;;;;;;;4.33;2.27;;;8.70;99.90;;;;;;6060875;23;20409;-81
2020/12/21 09:31:12;;;;;;;5.33;2.20;;;9.40;99.90;;;;;;6256124;22;20401;-79
2020/12/21 09:34:01;;;;;;;5.03;1.80;;;9.40;99.90;;;;;;6236993;22;20420;-82
2020/12/21 09:37:20;;;;;;;6.07;2.27;;;9.30;99.90;;;;;;6323061;22;20405;-81
2020/12/21 09:40:29;;;;;;;5.37;1.80;;;9.20;99.90;;;;;;6251475;22;20477;-81
2020/12/21 09:43:22;;;;;;;3.90;1.90;;;9.20;99.90;;;;;;6162451;23;20531;-82
2020/12/21 09:50:20;;;;;;;2.27;1.90;;;9.30;99.90;;;;;;6234771;22;20389;-82
2020/12/21 10:00:34;;;;;;;;;;;;;;;;;;;;;
2020/12/21 10:03:59;;;;;;;3.13;1.80;;;9.80;99.90;;;;;;6289450;22;20386;-80
2020/12/21 10:07:31;;;;;;;8.70;2.50;;;9.70;99.90;;;;;;6270668;22;20438;-81
2020/12/21 10:17:16;;;;;;;4.73;2.00;;;10.00;99.90;;;;;;6094312;23;20427;-80
2020/12/21 10:23:10;;;;;;;3.70;2.00;;;9.90;99.90;;;;;;6317600;22;20517;-80
2020/12/21 10:26:08;;;;;;;7.77;2.83;;;11.00;99.90;;;;;;6299637;22;20411;-83
2020/12/21 10:29:21;;;;;;;;;;;;;;;;;;;;;
2020/12/21 10:36:01;;;;;;;6.53;2.70;;;9.70;99.90;;;;;;6209817;23;20491;-80
2020/12/21 10:38:52;;;;;;;;;;;;;;;;;;;;;
2020/12/21 10:52:52;;;;;;;6.20;3.83;;;9.80;99.90;;;;;;6175855;23;20457;-79
2020/12/21 10:55:41;;;;;;;7.87;3.73;;;9.70;99.90;;;;;;6033766;23;20470;-79
2020/12/21 10:59:05;;;;;;;6.97;3.47;;;10.00;99.90;;;;;;6014018;23;20525;-82
2020/12/21 11:02:51;;;;;;;5.63;3.33;;;10.10;99.90;;;;;;6016150;23;20407;-81
2020/12/21 11:05:39;;;;;;;5.10;3.40;;;10.10;99.90;;;;;;5955133;23;20432;-82
2020/12/21 11:08:59;;;;;;;5.63;4.60;;;10.10;99.90;;;;;;6092581;23;20431;-82
2020/12/21 11:12:00;;;;;;;5.73;3.30;;;9.90;99.90;;;;;;6090463;23;20413;-83
2020/12/21 11:15:29;;;;;;;5.10;3.20;;;9.80;99.90;;;;;;6052037;23;20449;-82
2020/12/21 11:18:42;;;;;;;4.67;3.37;;;9.90;99.90;;;;;;6090988;23;20432;-82
2020/12/21 11:21:48;;;;;;;8.13;3.20;;;10.80;99.90;;;;;;6066372;23;20596;-82
2020/12/21 11:24:44;;;;;;;7.23;3.13;;;9.90;99.90;;;;;;6073690;23;20401;-82
2020/12/21 11:30:55;;;;;;;6.57;3.60;;;9.70;99.90;;;;;;6086039;23;20420;-82
2020/12/21 11:37:28;;;;;;;9.63;4.77;;;9.90;99.90;;;;;;6082151;23;20416;-82
2020/12/21 11:40:47;;;;;;;;;;;;;;;;;;;;;
2020/12/21 11:44:26;;;;;;;4.80;3.30;;;9.90;99.90;;;;;;6124104;23;20471;-82
2020/12/21 11:47:08;;;;;;;8.00;3.77;;;10.10;99.90;;;;;;6105025;23;20521;-83
2020/12/21 11:50:21;;;;;;;7.00;3.70;;;11.00;99.90;;;;;;6124526;23;20473;-81
2020/12/21 11:53:16;;;;;;;6.57;3.43;;;10.10;99.90;;;;;;6048370;23;20390;-83
2020/12/21 11:56:09;;;;;;;6.00;3.33;;;10.30;99.90;;;;;;6063808;23;20442;-84
2020/12/21 11:59:30;;;;;;;5.40;3.43;;;10.20;99.90;;;;;;6129407;23;20429;-84
2020/12/21 12:02:37;;;;;;;4.83;3.20;;;10.30;99.90;;;;;;6149546;23;20515;-83
2020/12/21 12:05:50;;;;;;;4.50;3.40;;;10.00;99.90;;;;;;6151329;23;20409;-83
2020/12/21 12:12:46;;;;;;;7.27;3.30;;;10.20;99.90;;;;;;6159618;23;20541;-83
2020/12/21 12:15:19;;;;;;;6.57;3.53;;;10.40;99.90;;;;;;6210416;23;20501;-84
2020/12/21 12:18:09;;;;;;;4.47;2.53;;;10.70;99.90;;;;;;6190153;23;20417;-82
2020/12/21 12:21:18;;;;;;;5.30;3.10;;;10.70;99.90;;;;;;6213136;23;20408;-82
2020/12/21 12:24:17;;;;;;;;;;;;;;;;;;;;;
2020/12/21 12:27:14;;;;;;;5.30;3.50;;;10.30;99.90;;;;;;6212232;23;20417;-80
2020/12/21 12:37:05;;;;;;;8.27;4.83;;;10.50;99.90;;;;;;6297116;22;20419;-83
2020/12/21 12:43:16;;;;;;;6.77;3.17;;;10.40;99.90;;;;;;6246165;23;20435;-82
2020/12/21 12:46:25;;;;;;;;;;;;;;;;;;;;;
2020/12/21 12:49:26;;;;;;;4.13;2.53;;;10.50;99.90;;;;;;6238623;23;20408;-84
2020/12/21 12:52:28;;;;;;;5.33;3.30;;;10.20;99.90;;;;;;6215330;23;20516;-84
2020/12/21 12:55:09;;;;;;;6.23;3.07;;;10.90;99.90;;;;;;6186446;23;20942;-83
2020/12/21 12:58:16;;;;;;;5.60;3.63;;;10.50;99.90;;;;;;6242905;22;20398;-81
2020/12/21 13:01:13;;;;;;;8.70;2.60;;;11.20;99.90;;;;;;6316931;22;20404;-81
2020/12/21 13:04:03;;;;;;;5.30;3.40;;;10.20;99.90;;;;;;6301364;22;20827;-82
2020/12/21 13:06:40;;;;;;;6.30;3.57;;;10.30;99.90;;;;;;6305812;22;20406;-81
2020/12/21 13:10:00;;;;;;;7.83;2.90;;;10.20;99.90;;;;;;6304789;22;20409;-82
2020/12/21 13:12:45;;;;;;;7.53;3.03;;;10.00;99.90;;;;;;6325404;22;20521;-81
2020/12/21 13:15:44;;;;;;;5.60;4.30;;;10.50;99.90;;;;;;6305046;22;20422;-82
2020/12/21 13:19:06;;;;;;;7.63;3.97;;;10.70;99.90;;;;;;6305560;22;20394;-84
2020/12/21 13:22:21;;;;;;;3.40;2.30;;;10.50;99.90;;;;;;6241507;22;21158;-83
2020/12/21 13:25:33;;;;;;;4.60;4.00;;;10.50;99.90;;;;;;6182709;22;20416;-82
2020/12/21 13:29:13;;;;;;;6.53;4.20;;;10.70;99.90;;;;;;6215804;23;20459;-80
2020/12/21 13:32:55;;;;;;;7.00;3.43;;;10.20;99.90;;;;;;6218885;23;20483;-82
2020/12/21 13:43:04;;;;;;;5.73;2.63;;;10.70;99.90;;;;;;6146292;23;20783;-82
2020/12/21 13:46:24;;;;;;;6.90;3.50;;;10.30;99.90;;;;;;6206914;23;20472;-83
2020/12/21 13:49:35;;;;;;;5.80;2.93;;;10.50;99.90;;;;;;6238928;23;20412;-83
2020/12/21 13:52:58;;;;;;;4.40;2.87;;;10.50;99.90;;;;;;6224912;22;20430;-82
2020/12/21 13:55:56;;;;;;;6.70;3.73;;;10.30;99.90;;;;;;6146224;23;20473;-82
2020/12/21 13:58:47;;;;;;;4.50;2.17;;;10.40;99.90;;;;;;6195754;23;20406;-82
2020/12/21 14:01:53;;;;;;;5.10;2.70;;;11.50;99.90;;;;;;6186251;23;20869;-83
2020/12/21 14:05:14;;;;;;;5.97;2.90;;;10.50;99.90;;;;;;6146328;23;20430;-81
2020/12/21 14:08:20;;;;;;;3.77;2.17;;;11.20;99.90;;;;;;6198106;23;20417;-82
2020/12/21 14:11:36;;;;;;;4.80;3.10;;;10.30;99.90;;;;;;6129578;23;20429;-82
2020/12/21 14:22:17;;;;;;;3.70;3.00;;;10.20;99.90;;;;;;6209168;23;20479;-82
2020/12/21 14:25:37;;;;;;;5.60;2.50;;;10.50;99.90;;;;;;6168127;23;21019;-79
2020/12/21 14:40:25;;;;;;;3.47;2.40;;;9.90;99.90;;;;;;6085950;23;20414;-82
2020/12/21 14:43:12;;;;;;;5.23;2.87;;;9.90;99.90;;;;;;6100557;23;20415;-81
2020/12/21 14:46:29;;;;;;;4.90;2.50;;;9.90;99.90;;;;;;6097167;23;20620;-81
2020/12/21 14:53:38;;;;;;;2.73;2.20;;;10.10;99.90;;;;;;6206073;23;20393;-81
2020/12/21 14:56:44;;;;;;;3.50;1.90;;;9.90;99.90;;;;;;6065558;23;20551;-82
2020/12/21 14:59:54;;;;;;;5.20;2.20;;;10.20;99.90;;;;;;6089893;23;20432;-81
2020/12/21 15:07:28;;;;;;;;;;;;;;;;;;;;;
2020/12/21 15:17:51;;;;;;;;;;;;;;;;;;;;;
2020/12/21 15:24:54;;;;;;;4.07;2.10;;;10.10;99.90;;;;;;6051075;23;20389;-83
2020/12/21 15:27:50;;;;;;;;;;;;;;;;;;;;;
2020/12/21 15:49:04;;;;;;;;;;;;;;;;;;;;;
2020/12/21 15:52:31;;;;;;;3.13;1.60;;;10.00;99.90;;;;;;6171526;23;20410;-82
2020/12/21 15:55:39;;;;;;;1.97;1.20;;;10.20;99.90;;;;;;6172511;23;20477;-80
2020/12/21 15:58:31;;;;;;;1.40;1.30;;;10.10;99.90;;;;;;6198361;23;20431;-81
2020/12/21 16:02:02;;;;;;;3.70;1.53;;;10.10;99.90;;;;;;6147566;23;20435;-80
2020/12/21 16:05:08;;;;;;;4.80;1.73;;;10.00;99.90;;;;;;6136003;23;20459;-82
2020/12/21 16:08:32;;;;;;;1.90;1.27;;;10.10;99.90;;;;;;6138545;23;20399;-81
2020/12/21 16:11:54;;;;;;;2.50;2.30;;;10.00;99.90;;;;;;6144553;23;20419;-82
2020/12/21 16:14:50;;;;;;;2.87;1.50;;;10.00;99.90;;;;;;6132744;23;20439;-82
2020/12/21 16:18:03;;;;;;;3.10;2.50;;;10.20;99.90;;;;;;6054811;23;20461;-82
2020/12/21 16:21:22;;;;;;;3.30;1.70;;;10.20;99.90;;;;;;6108360;23;20467;-81
2020/12/21 16:24:46;;;;;;;1.70;1.60;;;10.30;99.90;;;;;;6172665;23;20409;-81
2020/12/21 16:27:35;;;;;;;2.90;1.80;;;10.10;99.90;;;;;;6190943;23;20419;-82
2020/12/21 16:34:43;;;;;;;1.40;1.30;;;9.90;99.90;;;;;;6096112;23;20419;-80
2020/12/21 16:37:53;;;;;;;2.60;1.73;;;10.20;99.90;;;;;;6070768;23;20412;-81
2020/12/21 16:40:36;;;;;;;4.20;1.87;;;9.90;99.90;;;;;;6077232;23;20443;-82
2020/12/21 16:44:06;;;;;;;;;;;;;;;;;;;;;
2020/12/21 16:46:37;;;;;;;1.67;1.57;;;9.80;99.90;;;;;;6093277;23;20842;-80
2020/12/21 16:59:19;;;;;;;1.90;1.80;;;10.00;99.90;;;;;;6216028;22;20461;-81
2020/12/21 17:03:06;;;;;;;1.97;1.40;;;9.90;99.90;;;;;;6158917;23;20491;-80
2020/12/21 17:14:13;;;;;;;;;;;;;;;;;;;;;
2020/12/21 17:17:25;;;;;;;2.43;1.90;;;10.00;99.90;;;;;;5896326;24;20406;-81
2020/12/21 17:21:00;;;;;;;2.60;2.17;;;9.90;99.90;;;;;;5895594;24;20406;-80
2020/12/21 17:24:52;;;;;;;4.23;2.10;;;10.40;99.90;;;;;;5940421;24;20439;-81
2020/12/21 17:28:25;;;;;;;2.47;1.93;;;9.80;99.90;;;;;;6054538;23;20415;-82
2020/12/21 17:31:33;;;;;;;3.13;2.70;;;9.90;99.90;;;;;;6064817;23;20416;-82
2020/12/21 17:41:59;;;;;;;2.70;2.13;;;10.60;99.90;;;;;;5999263;23;20403;-81
2020/12/21 17:45:44;;;;;;;3.50;2.43;;;9.80;99.90;;;;;;6111171;23;20478;-82
2020/12/21 17:48:49;;;;;;;3.43;2.23;;;9.90;99.90;;;;;;6124889;23;20418;-83
2020/12/21 17:52:20;;;;;;;2.83;2.40;;;9.80;99.90;;;;;;6178607;23;20542;-82
2020/12/21 17:55:46;;;;;;;2.70;2.03;;;9.90;99.90;;;;;;6041143;23;20449;-83
2020/12/21 17:58:57;;;;;;;3.17;2.50;;;9.80;99.90;;;;;;5944484;24;20405;-81
2020/12/21 18:02:26;;;;;;;2.23;2.10;;;10.10;99.90;;;;;;5961150;24;20443;-82
2020/12/21 18:09:10;;;;;;;3.17;2.33;;;9.90;99.90;;;;;;5942247;24;20464;-83
2020/12/21 18:16:22;;;;;;;2.27;2.07;;;9.80;99.90;;;;;;5945909;24;20499;-81
2020/12/21 18:19:27;;;;;;;3.30;2.30;;;10.00;99.90;;;;;;6028072;23;20667;-81
2020/12/21 18:22:00;;;;;;;5.37;2.77;;;9.90;99.90;;;;;;6013213;23;20435;-82
2020/12/21 18:25:12;;;;;;;3.43;2.47;;;10.70;99.90;;;;;;6008548;23;20687;-82
2020/12/21 18:28:33;;;;;;;3.97;2.87;;;9.90;99.90;;;;;;6003399;23;20728;-81
2020/12/21 18:31:31;;;;;;;2.80;2.60;;;10.00;99.90;;;;;;5947616;23;20979;-80
2020/12/21 18:37:55;;;;;;;4.97;3.90;;;9.90;99.90;;;;;;6070525;23;20442;-82
2020/12/21 18:40:42;;;;;;;3.17;2.87;;;10.70;99.90;;;;;;6058759;23;20429;-83
2020/12/21 18:47:37;;;;;;;2.57;2.37;;;9.80;99.90;;;;;;6044738;23;20905;-82
2020/12/21 18:50:50;;;;;;;2.60;2.33;;;9.80;99.90;;;;;;6061154;23;20425;-81
2020/12/21 18:54:17;;;;;;;3.53;3.20;;;9.80;99.90;;;;;;6058792;23;20425;-82
2020/12/21 18:57:53;;;;;;;4.67;3.53;;;9.90;99.90;;;;;;6138525;23;20410;-83
2020/12/21 19:01:37;;;;;;;4.80;4.30;;;9.80;99.90;;;;;;6239397;22;20398;-81
2020/12/21 19:05:07;;;;;;;4.97;3.73;;;9.60;99.90;;;;;;6242587;23;20878;-83
2020/12/21 19:08:46;;;;;;;2.77;2.57;;;10.10;99.90;;;;;;6242989;23;20383;-82
2020/12/21 19:11:44;;;;;;;4.20;2.60;;;10.20;99.90;;;;;;6221316;22;20439;-82
2020/12/21 19:15:16;;;;;;;3.00;2.40;;;10.10;99.90;;;;;;6240276;22;20385;-82
2020/12/21 19:22:17;;;;;;;7.53;4.83;;;10.30;99.90;;;;;;6255750;22;20561;-83
2020/12/21 19:25:51;;;;;;;3.90;3.30;;;10.40;99.90;;;;;;6239774;22;20429;-80
2020/12/21 19:33:34;;;;;;;2.03;1.93;;;10.20;99.90;;;;;;5928910;23;20390;-81
2020/12/21 19:40:23;;;;;;;2.47;2.27;;;11.00;99.90;;;;;;6120572;23;20441;-83
2020/12/21 19:47:31;;;;;;;3.10;2.80;;;10.40;99.90;;;;;;5972450;23;20565;-82
2020/12/21 19:54:30;;;;;;;2.30;1.90;;;10.40;99.90;;;;;;6164395;23;20656;-82
2020/12/21 20:02:01;;;;;;;;;;;;;;;;;;;;;
2020/12/21 20:09:56;;;;;;;2.57;2.10;;;10.40;99.90;;;;;;6051490;23;20712;-80
2020/12/21 20:32:02;;;;;;;2.90;2.27;;;10.90;99.90;;;;;;6274588;22;20565;-81
2020/12/21 20:46:16;;;;;;;1.50;1.30;;;10.80;99.90;;;;;;6280410;22;20458;-83
2020/12/21 20:57:25;;;;;;;2.13;1.93;;;10.70;99.90;;;;;;5981068;24;20575;-82
2020/12/21 21:04:16;;;;;;;;;;;;;;;;;;;;;
2020/12/21 21:15:52;;;;;;;1.93;1.83;;;11.00;99.90;;;;;;6125158;23;20387;-79
2020/12/21 21:26:53;;;;;;;1.63;1.30;;;11.30;99.90;;;;;;6295461;22;20395;-82
2020/12/21 21:30:28;;;;;;;1.97;1.87;;;11.40;99.90;;;;;;6294697;22;20455;-83
2020/12/21 21:34:08;;;;;;;2.47;2.27;;;11.50;99.90;;;;;;6112983;23;20420;-81
2020/12/21 21:36:58;;;;;;;2.73;1.90;;;11.50;99.90;;;;;;6044352;23;20490;-83
2020/12/21 21:39:53;;;;;;;1.63;1.33;;;11.70;99.90;;;;;;6090869;23;20454;-82
2020/12/21 21:43:52;;;;;;;1.67;1.23;;;11.70;99.90;;;;;;6153618;23;20473;-82
2020/12/21 22:03:23;;;;;;;1.47;1.23;;;12.00;99.90;;;;;;6015337;23;20525;-82
2020/12/21 22:07:30;;;;;;;;;;;;;;;;;;;;;
2020/12/21 22:10:51;;;;;;;;;;;;;;;;;;;;;
2020/12/21 22:14:24;;;;;;;1.60;1.50;;;12.20;99.90;;;;;;6255119;22;20402;-82
2020/12/21 22:21:59;;;;;;;1.63;1.50;;;12.10;99.90;;;;;;6095067;23;20421;-83
2020/12/21 22:25:22;;;;;;;2.40;0.90;;;12.30;99.90;;;;;;6124481;23;20414;-82
2020/12/21 22:28:43;;;;;;;1.17;0.80;;;12.20;99.90;;;;;;6094262;23;20991;-82
2020/12/21 22:43:13;;;;;;;;;;;;;;;;;;;;;
2020/12/21 22:50:54;;;;;;;;;;;;;;;;;;;;;
2020/12/21 22:58:47;;;;;;;1.17;0.60;;;12.60;99.90;;;;;;6133019;23;20496;-82
2020/12/21 23:02:29;;;;;;;0.50;0.50;;;12.70;99.90;;;;;;5986645;23;20408;-83
2020/12/21 23:23:55;;;;;;;;;;;;;;;;;;;;;
2020/12/21 23:34:48;;;;;;;0.40;0.40;;;12.90;99.90;;;;;;5929648;24;20401;-80
2020/12/21 23:37:46;;;;;;;0.43;0.40;;;13.00;99.90;;;;;;5925886;24;20407;-80
2020/12/21 23:46:19;;;;;;;0.93;0.40;;;13.10;99.90;;;;;;6291251;22;20505;-82
